Time;durP1;ratioP1;P1;durP2;ratioP2;P2;SDS_P1;SDS_P2;PMS_P1;PMS_P2;Temp;Humidity;BMP_temperature;BMP_pressure;BME280_temperature;BME280_humidity;BME280_pressure;Samples;Min_cycle;Max_cycle;Signal;HPM_P1;HPM_P2
2022/10/03 00:03:59;;;;;;;12.68;11.35;;;21.90;63.40;;;;;;4445050;59;21109;-27
2022/10/03 00:09:34;;;;;;;13.32;11.05;;;21.90;63.40;;;;;;4449012;59;21112;-26
2022/10/03 00:16:33;;;;;;;13.20;11.23;;;21.90;63.40;;;;;;4453761;59;21028;-27
2022/10/03 00:21:59;;;;;;;14.10;11.27;;;21.90;63.40;;;;;;4454837;59;21144;-35
2022/10/03 00:27:25;;;;;;;12.07;10.73;;;21.90;63.40;;;;;;4440766;63;21657;-31
2022/10/03 00:34:18;;;;;;;13.73;11.40;;;21.90;63.40;;;;;;4440231;59;21144;-34
2022/10/03 00:40:31;;;;;;;13.10;11.57;;;21.90;63.40;;;;;;4459796;59;21545;-30
2022/10/03 00:46:01;;;;;;;12.68;10.82;;;21.90;63.40;;;;;;4471260;59;21092;-33
2022/10/03 00:52:43;;;;;;;12.60;10.65;;;21.90;63.40;;;;;;4453329;59;21068;-36
2022/10/03 00:59:05;;;;;;;12.48;11.18;;;21.90;63.40;;;;;;4445830;59;21610;-34
2022/10/03 01:05:47;;;;;;;11.43;10.23;;;21.90;63.30;;;;;;4460215;59;21076;-33
2022/10/03 01:12:36;;;;;;;11.23;9.95;;;21.90;63.30;;;;;;4443402;59;21104;-33
2022/10/03 01:18:38;;;;;;;11.77;10.15;;;21.90;63.30;;;;;;4458959;59;21111;-27
2022/10/03 01:26:51;;;;;;;11.45;10.13;;;21.90;63.40;;;;;;4452946;59;21651;-32
2022/10/03 01:35:52;;;;;;;12.18;10.57;;;21.90;63.40;;;;;;4459716;59;21146;-36
2022/10/03 01:42:05;;;;;;;12.23;10.02;;;21.90;63.30;;;;;;4447267;59;21650;-27
2022/10/03 01:48:39;;;;;;;11.77;9.48;;;21.90;63.40;;;;;;4439691;63;21094;-31
2022/10/03 01:53:53;;;;;;;11.32;10.18;;;21.90;63.30;;;;;;4466527;59;21176;-35
2022/10/03 01:59:21;;;;;;;12.65;10.02;;;21.90;63.40;;;;;;4458532;59;21071;-33
2022/10/03 02:07:19;;;;;;;11.50;10.15;;;21.90;63.30;;;;;;4484521;59;21101;-30
2022/10/03 02:14:30;;;;;;;10.88;9.73;;;21.90;63.30;;;;;;4457558;59;21606;-27
2022/10/03 02:19:47;;;;;;;11.05;9.82;;;21.90;63.30;;;;;;4451923;59;21124;-31
2022/10/03 02:26:02;;;;;;;9.95;8.82;;;21.90;63.30;;;;;;4440046;63;21630;-28
2022/10/03 02:32:06;;;;;;;12.45;10.43;;;21.90;63.40;;;;;;4443222;59;21052;-29
2022/10/03 02:39:57;;;;;;;10.40;9.20;;;21.90;63.30;;;;;;4462615;59;21055;-34
2022/10/03 02:47:04;;;;;;;10.93;9.32;;;21.90;63.30;;;;;;4452772;59;21104;-30
2022/10/03 02:57:40;;;;;;;11.07;9.80;;;21.90;63.30;;;;;;4491567;59;21546;-30
2022/10/03 03:06:05;;;;;;;10.13;9.05;;;21.90;63.30;;;;;;4451734;59;21068;-32
2022/10/03 03:18:10;;;;;;;9.97;8.67;;;21.90;63.30;;;;;;4463413;59;21088;-33
2022/10/03 03:26:27;;;;;;;10.85;9.40;;;21.90;63.40;;;;;;4439930;63;22719;-32
2022/10/03 03:35:10;;;;;;;10.02;8.93;;;21.90;63.40;;;;;;4439761;63;21104;-34
2022/10/03 03:41:58;;;;;;;12.48;9.25;;;21.90;63.40;;;;;;4443976;59;21565;-32
2022/10/03 03:48:46;;;;;;;9.68;8.68;;;21.90;63.50;;;;;;4451419;59;21044;-31
2022/10/03 03:54:18;;;;;;;10.68;8.65;;;21.90;63.40;;;;;;4454204;59;22036;-33
2022/10/03 03:59:58;;;;;;;9.57;8.50;;;21.90;63.50;;;;;;4479918;59;21622;-32
2022/10/03 04:05:43;;;;;;;10.20;8.40;;;21.90;63.40;;;;;;4446463;59;21092;-31
2022/10/03 04:18:57;;;;;;;9.50;8.52;;;21.90;64.10;;;;;;4446069;59;21044;-29
2022/10/03 04:24:33;;;;;;;8.82;7.93;;;21.90;63.40;;;;;;4494790;59;21125;-30
2022/10/03 04:33:03;;;;;;;9.48;8.25;;;21.90;63.40;;;;;;4440677;63;21518;-34
2022/10/03 04:38:39;;;;;;;9.90;8.32;;;21.90;63.40;;;;;;4455341;59;21083;-30
2022/10/03 04:47:47;;;;;;;8.47;7.57;;;21.90;63.90;;;;;;4458963;59;21076;-27
2022/10/03 04:56:23;;;;;;;8.85;7.53;;;21.90;63.30;;;;;;4445649;59;21599;-31
2022/10/03 05:01:54;;;;;;;8.50;7.60;;;21.80;63.30;;;;;;4447612;59;21048;-30
2022/10/03 05:07:24;;;;;;;9.00;8.05;;;21.90;63.30;;;;;;4458232;59;21036;-33
2022/10/03 05:12:40;;;;;;;9.32;7.37;;;21.90;63.30;;;;;;4478881;59;21028;-35
2022/10/03 05:18:03;;;;;;;8.25;7.28;;;21.90;63.30;;;;;;4442595;59;21056;-35
2022/10/03 05:23:30;;;;;;;7.70;6.90;;;21.90;63.30;;;;;;4464177;59;21068;-29
2022/10/03 05:31:44;;;;;;;9.35;7.37;;;21.90;63.30;;;;;;4453155;59;21626;-27
2022/10/03 05:40:35;;;;;;;8.75;6.90;;;21.90;63.30;;;;;;4439800;63;21538;-32
2022/10/03 05:45:48;;;;;;;7.78;6.50;;;21.90;63.30;;;;;;4444837;59;21108;-31
2022/10/03 05:52:42;;;;;;;8.40;6.95;;;21.90;62.80;;;;;;4440144;59;21690;-34
2022/10/03 05:58:18;;;;;;;8.55;7.65;;;21.90;63.30;;;;;;4441465;59;21075;-36
2022/10/03 06:07:11;;;;;;;8.77;7.18;;;21.90;63.30;;;;;;4448095;59;21610;-30
2022/10/03 06:12:25;;;;;;;8.55;6.95;;;21.90;63.30;;;;;;4467391;59;22087;-34
2022/10/03 06:18:21;;;;;;;8.52;7.28;;;21.80;63.20;;;;;;4464454;59;21093;-32
2022/10/03 06:24:12;;;;;;;8.75;7.80;;;21.80;63.20;;;;;;4454861;59;21618;-26
2022/10/03 06:30:45;;;;;;;16.77;12.57;;;21.90;63.20;;;;;;4455920;59;21108;-35
2022/10/03 06:36:28;;;;;;;16.80;13.38;;;21.80;62.00;;;;;;4462283;59;22068;-32
2022/10/03 06:42:13;;;;;;;17.48;13.18;;;21.90;62.30;;;;;;4480001;59;21088;-34
2022/10/03 06:50:52;;;;;;;21.02;13.95;;;21.90;62.20;;;;;;4440131;59;21040;-31
2022/10/03 06:56:30;;;;;;;32.08;23.73;;;21.90;61.60;;;;;;4447378;59;21298;-31
2022/10/03 07:08:08;;;;;;;32.78;24.20;;;21.90;61.50;;;;;;4446000;59;21064;-28
2022/10/03 07:16:26;;;;;;;37.78;28.87;;;21.90;61.50;;;;;;4447752;59;21112;-36
2022/10/03 07:23:19;;;;;;;37.17;29.87;;;21.90;61.30;;;;;;4441787;59;21640;-33
2022/10/03 07:33:01;;;;;;;38.92;30.88;;;21.90;60.70;;;;;;4451031;59;21180;-32
2022/10/03 07:41:59;;;;;;;38.25;27.80;;;21.80;60.40;;;;;;4457541;59;21132;-32
2022/10/03 07:47:50;;;;;;;46.70;33.88;;;21.80;60.50;;;;;;4457719;59;21537;-31
2022/10/03 07:53:23;;;;;;;47.47;32.92;;;21.80;59.50;;;;;;4476491;59;21144;-28
2022/10/03 07:58:55;;;;;;;49.70;32.25;;;21.80;59.60;;;;;;4440479;59;21068;-30
2022/10/03 08:04:49;;;;;;;44.30;31.70;;;21.90;60.20;;;;;;4457347;59;21052;-29
2022/10/03 08:11:46;;;;;;;46.13;31.85;;;22.00;60.30;;;;;;4461598;59;21187;-33
2022/10/03 08:30:24;;;;;;;42.85;29.87;;;22.00;60.30;;;;;;4467219;59;21076;-30
2022/10/03 08:37:01;;;;;;;50.63;34.47;;;22.20;61.00;;;;;;4470994;59;21674;-31
2022/10/03 08:43:42;;;;;;;54.22;36.58;;;22.30;61.30;;;;;;4444363;59;21738;-31
2022/10/03 08:52:41;;;;;;;59.97;38.00;;;22.40;61.60;;;;;;4444059;59;21157;-32
2022/10/03 08:58:28;;;;;;;52.08;37.63;;;22.40;61.30;;;;;;4451036;59;21124;-32
2022/10/03 09:09:38;;;;;;;55.58;40.00;;;22.40;61.10;;;;;;4439554;59;21200;-33
2022/10/03 09:15:24;;;;;;;52.33;39.00;;;22.40;61.00;;;;;;4458709;59;21076;-31
2022/10/03 09:26:34;;;;;;;75.97;53.20;;;22.30;60.50;;;;;;4448060;59;21499;-31
2022/10/03 09:34:37;;;;;;;77.93;50.42;;;22.30;57.40;;;;;;4445922;59;21549;-33
2022/10/03 09:40:35;;;;;;;79.78;55.80;;;22.30;56.00;;;;;;4447942;59;21181;-33
2022/10/03 09:46:24;;;;;;;85.82;59.92;;;22.30;55.50;;;;;;4439203;63;21143;-33
2022/10/03 09:52:43;;;;;;;86.37;62.45;;;22.30;55.40;;;;;;4444304;59;21169;-29
2022/10/03 09:58:15;;;;;;;85.78;58.67;;;22.30;54.60;;;;;;4445332;59;21105;-27
2022/10/03 10:03:53;;;;;;;79.82;57.75;;;22.30;54.30;;;;;;4440429;63;21088;-32
2022/10/03 10:15:03;;;;;;;80.28;53.67;;;22.30;53.80;;;;;;4449887;59;21124;-27
2022/10/03 10:20:33;;;;;;;68.35;45.33;;;22.30;52.60;;;;;;4466175;59;21056;-32
2022/10/03 10:26:19;;;;;;;66.50;48.13;;;22.30;51.70;;;;;;4439932;59;21179;-34
2022/10/03 10:38:27;;;;;;;71.60;48.10;;;22.20;52.00;;;;;;4439925;63;21084;-31
2022/10/03 10:47:47;;;;;;;74.22;50.05;;;22.20;51.80;;;;;;4451357;59;21546;-30
2022/10/03 10:54:51;;;;;;;73.43;51.00;;;22.30;51.80;;;;;;4444703;59;21598;-30
2022/10/03 11:00:35;;;;;;;75.12;56.90;;;22.30;51.70;;;;;;4449979;59;21091;-30
2022/10/03 11:09:05;;;;;;;77.45;55.60;;;22.30;51.50;;;;;;4496854;59;21603;-32
2022/10/03 11:16:21;;;;;;;75.12;54.47;;;22.30;52.10;;;;;;4440675;59;21116;-30
2022/10/03 11:26:46;;;;;;;73.30;52.92;;;22.30;52.40;;;;;;4441943;59;21128;-33
2022/10/03 11:34:43;;;;;;;70.75;52.25;;;22.30;52.70;;;;;;4458652;59;21137;-28
2022/10/03 11:40:37;;;;;;;65.20;48.72;;;22.30;52.90;;;;;;4456096;59;21090;-34
2022/10/03 11:45:54;;;;;;;64.50;47.92;;;22.30;53.00;;;;;;4447835;59;21132;-32
2022/10/03 11:51:17;;;;;;;53.30;38.05;;;22.30;52.90;;;;;;4459750;59;21164;-29
2022/10/03 11:56:40;;;;;;;48.70;36.88;;;22.30;51.60;;;;;;4472243;59;21506;-32
2022/10/03 12:08:55;;;;;;;44.10;34.17;;;22.30;51.60;;;;;;4440068;63;21189;-30
2022/10/03 12:15:53;;;;;;;34.47;26.50;;;22.30;50.00;;;;;;4443388;59;21080;-29
2022/10/03 12:21:13;;;;;;;37.20;26.00;;;22.20;49.60;;;;;;4440134;63;21523;-29
2022/10/03 12:26:20;;;;;;;37.78;27.10;;;22.20;49.30;;;;;;4442953;59;22096;-31
2022/10/03 12:31:34;;;;;;;34.83;27.45;;;22.20;48.80;;;;;;4447545;59;21602;-28
2022/10/03 12:38:25;;;;;;;34.63;26.48;;;22.20;49.30;;;;;;4440541;59;21574;-28
2022/10/03 12:46:25;;;;;;;42.50;31.17;;;22.20;49.00;;;;;;4452694;59;21136;-30
2022/10/03 12:52:23;;;;;;;38.22;26.40;;;22.20;48.70;;;;;;4439871;63;21546;-30
2022/10/03 12:58:00;;;;;;;37.65;28.62;;;22.10;49.10;;;;;;4439853;63;21128;-33
2022/10/03 13:03:18;;;;;;;36.08;27.67;;;22.20;49.10;;;;;;4441013;63;21555;-34
2022/10/03 13:09:22;;;;;;;38.72;27.35;;;22.20;49.00;;;;;;4446938;59;21115;-29
2022/10/03 13:15:02;;;;;;;40.25;30.58;;;22.20;49.30;;;;;;4440205;59;21092;-30
2022/10/03 13:20:31;;;;;;;37.92;30.50;;;22.20;49.40;;;;;;4474883;59;21597;-32
2022/10/03 13:25:58;;;;;;;46.17;32.83;;;22.20;50.00;;;;;;4465142;59;21032;-34
2022/10/03 13:31:10;;;;;;;47.08;34.80;;;22.30;50.50;;;;;;4450519;59;21546;-31
2022/10/03 13:37:44;;;;;;;51.42;39.38;;;22.30;50.60;;;;;;4517505;59;21056;-31
2022/10/03 13:42:52;;;;;;;47.70;35.47;;;22.30;50.10;;;;;;4467286;59;21555;-31
2022/10/03 13:48:38;;;;;;;49.60;37.05;;;22.20;51.80;;;;;;4443576;59;22172;-31
2022/10/03 13:54:00;;;;;;;52.87;41.77;;;22.20;50.20;;;;;;4456989;59;21048;-35
2022/10/03 13:59:37;;;;;;;56.00;43.30;;;22.30;50.40;;;;;;4449307;59;21574;-36
2022/10/03 14:04:55;;;;;;;54.07;43.27;;;22.30;50.30;;;;;;4451242;59;21127;-30
2022/10/03 14:10:35;;;;;;;52.50;40.63;;;22.30;50.40;;;;;;4441926;59;21484;-29
2022/10/03 14:16:39;;;;;;;56.03;42.72;;;22.30;50.80;;;;;;4498242;59;21064;-28
2022/10/03 14:27:37;;;;;;;60.35;44.83;;;22.30;50.40;;;;;;4454152;59;22075;-30
2022/10/03 14:36:28;;;;;;;57.38;43.17;;;22.30;50.60;;;;;;4441851;59;21068;-32
2022/10/03 14:46:49;;;;;;;56.17;43.03;;;22.20;51.10;;;;;;4450278;59;21581;-31
2022/10/03 14:51:58;;;;;;;53.20;41.72;;;22.20;51.20;;;;;;4514471;59;21125;-28
2022/10/03 14:57:12;;;;;;;49.85;39.50;;;22.20;51.60;;;;;;4463185;59;21057;-28
2022/10/03 15:02:32;;;;;;;51.22;40.08;;;22.20;51.90;;;;;;4439597;63;21041;-32
2022/10/03 15:07:44;;;;;;;50.88;39.97;;;22.20;52.00;;;;;;4441250;59;21112;-28
2022/10/03 15:12:52;;;;;;;50.03;39.17;;;22.10;52.20;;;;;;4445762;59;21409;-32
2022/10/03 15:17:59;;;;;;;52.42;38.35;;;22.10;52.30;;;;;;4454963;59;21606;-28
2022/10/03 15:23:02;;;;;;;46.53;36.78;;;22.10;52.50;;;;;;4471790;59;21530;-31
2022/10/03 15:28:07;;;;;;;46.40;37.17;;;22.10;53.10;;;;;;4458855;59;21041;-32
2022/10/03 15:35:54;;;;;;;46.10;36.75;;;22.10;52.90;;;;;;4443302;59;21582;-27
2022/10/03 15:41:27;;;;;;;45.47;36.63;;;22.10;53.00;;;;;;4439819;63;21380;-34
2022/10/03 15:46:47;;;;;;;45.17;36.03;;;22.10;53.10;;;;;;4445696;59;21961;-33
2022/10/03 15:51:48;;;;;;;43.78;35.42;;;22.00;53.20;;;;;;4473769;59;21108;-30
2022/10/03 15:56:58;;;;;;;45.30;35.33;;;22.00;53.40;;;;;;4439609;59;21104;-27
2022/10/03 16:02:17;;;;;;;44.15;35.47;;;22.00;53.50;;;;;;4468724;59;21573;-27
2022/10/03 16:08:13;;;;;;;42.45;33.10;;;22.00;53.60;;;;;;4455440;59;21619;-36
2022/10/03 16:13:58;;;;;;;42.37;34.10;;;22.00;53.70;;;;;;4446783;59;21084;-32
2022/10/03 16:20:05;;;;;;;38.75;32.10;;;22.00;53.80;;;;;;4497269;59;21518;-35
2022/10/03 16:25:18;;;;;;;40.47;32.40;;;22.00;54.00;;;;;;4440109;63;21498;-27
2022/10/03 16:30:26;;;;;;;41.28;33.72;;;22.00;54.10;;;;;;4451376;59;21072;-28
2022/10/03 16:35:37;;;;;;;40.25;33.45;;;22.00;54.80;;;;;;4439920;59;21091;-33
2022/10/03 16:40:38;;;;;;;39.03;32.88;;;22.00;54.30;;;;;;4482461;59;21017;-30
2022/10/03 16:45:43;;;;;;;39.08;32.40;;;22.00;54.30;;;;;;4463573;58;21100;-33
2022/10/03 16:50:50;;;;;;;44.33;33.58;;;22.00;54.40;;;;;;4461608;59;21088;-28
2022/10/03 16:55:58;;;;;;;38.00;32.08;;;22.00;55.10;;;;;;4451275;59;21654;-29
2022/10/03 17:01:23;;;;;;;;;;;22.00;54.60;;;;;;4455319;59;21139;-31
2022/10/03 17:06:31;;;;;;;39.92;31.85;;;22.00;54.70;;;;;;4438734;62;20086;-34
2022/10/03 17:11:35;;;;;;;42.75;33.08;;;22.00;54.80;;;;;;4453685;59;21080;-30
2022/10/03 17:16:49;;;;;;;36.28;29.95;;;22.00;54.90;;;;;;4470503;59;21232;-32
2022/10/03 17:21:57;;;;;;;39.67;31.95;;;22.00;54.90;;;;;;4500156;59;21569;-28
2022/10/03 17:27:06;;;;;;;39.15;32.03;;;22.00;55.00;;;;;;4444200;59;21554;-30
2022/10/03 17:32:19;;;;;;;41.40;31.62;;;22.00;55.10;;;;;;4440901;59;21234;-28
2022/10/03 17:38:26;;;;;;;39.50;32.33;;;22.00;55.20;;;;;;4501871;59;21140;-27
2022/10/03 17:43:57;;;;;;;39.42;31.20;;;22.00;55.30;;;;;;4447374;59;21569;-33
2022/10/03 17:49:59;;;;;;;38.30;30.85;;;22.00;55.40;;;;;;4441681;59;21089;-26
2022/10/03 17:55:03;;;;;;;40.83;31.12;;;22.00;55.40;;;;;;4439819;59;21052;-30
2022/10/03 18:00:14;;;;;;;40.22;32.00;;;22.00;55.50;;;;;;4458409;59;21164;-26
2022/10/03 18:05:21;;;;;;;41.10;31.40;;;22.00;55.50;;;;;;4440497;63;21021;-35
2022/10/03 18:10:33;;;;;;;40.05;31.95;;;22.00;55.60;;;;;;4459425;59;21100;-30
2022/10/03 18:20:44;;;;;;;40.83;32.53;;;22.00;55.70;;;;;;4450963;59;21028;-35
2022/10/03 18:26:04;;;;;;;40.10;32.13;;;22.00;55.80;;;;;;4453190;59;21100;-34
2022/10/03 18:31:14;;;;;;;38.25;31.35;;;22.00;55.90;;;;;;4472066;59;21662;-35
2022/10/03 18:36:24;;;;;;;38.78;31.23;;;22.00;56.00;;;;;;4460963;59;21032;-25
2022/10/03 18:41:25;;;;;;;40.65;31.92;;;22.00;56.10;;;;;;4469737;59;21252;-27
2022/10/03 18:46:39;;;;;;;38.75;31.48;;;22.00;56.10;;;;;;4446814;59;21101;-35
2022/10/03 18:52:37;;;;;;;38.42;31.58;;;22.00;56.20;;;;;;4452625;58;21126;-34
2022/10/03 18:58:31;;;;;;;39.10;31.33;;;22.00;56.20;;;;;;4461653;59;21096;-29
2022/10/03 19:07:13;;;;;;;40.28;31.30;;;21.90;56.30;;;;;;4454217;59;21048;-32
2022/10/03 19:12:19;;;;;;;40.08;32.03;;;21.90;56.40;;;;;;4485986;59;21593;-36
2022/10/03 19:17:47;;;;;;;38.90;32.38;;;22.00;56.50;;;;;;4455292;59;21052;-29
2022/10/03 19:23:21;;;;;;;40.58;32.42;;;21.90;56.50;;;;;;4440500;63;21060;-30
2022/10/03 19:28:45;;;;;;;38.15;31.15;;;22.00;56.60;;;;;;4452036;59;21554;-27
2022/10/03 19:33:55;;;;;;;39.20;30.67;;;22.00;56.60;;;;;;4443291;59;21060;-32
2022/10/03 19:38:58;;;;;;;37.20;30.27;;;21.90;56.60;;;;;;4450977;59;21048;-29
2022/10/03 19:44:13;;;;;;;41.40;31.70;;;22.00;56.70;;;;;;4459899;59;21171;-30
2022/10/03 19:52:08;;;;;;;41.15;31.77;;;22.00;56.70;;;;;;4452438;59;21040;-32
2022/10/03 19:57:26;;;;;;;37.27;30.37;;;21.90;56.70;;;;;;4453844;59;21587;-33
2022/10/03 20:02:28;;;;;;;40.40;30.62;;;21.90;56.70;;;;;;4452478;59;21104;-26
2022/10/03 20:07:44;;;;;;;38.78;31.30;;;21.90;56.80;;;;;;4448458;59;21598;-34
2022/10/03 20:12:50;;;;;;;37.65;30.90;;;21.90;56.80;;;;;;4450904;59;21562;-27
2022/10/03 20:18:01;;;;;;;37.50;30.48;;;21.90;56.80;;;;;;4450082;59;21052;-29
2022/10/03 20:23:06;;;;;;;39.75;30.77;;;21.90;56.90;;;;;;4451925;59;21577;-29
2022/10/03 20:28:26;;;;;;;38.72;29.70;;;21.90;56.90;;;;;;4457178;59;21657;-28
2022/10/03 20:33:32;;;;;;;38.58;29.98;;;21.90;56.90;;;;;;4443743;59;21068;-29
2022/10/03 20:46:49;;;;;;;39.67;31.00;;;21.90;57.00;;;;;;4448819;59;21093;-27
2022/10/03 20:52:05;;;;;;;37.75;29.50;;;21.90;57.00;;;;;;4453193;59;21084;-33
2022/10/03 20:57:28;;;;;;;37.90;28.60;;;21.90;57.00;;;;;;4466360;59;21044;-30
2022/10/03 21:03:26;;;;;;;36.33;28.75;;;21.90;57.10;;;;;;4453899;59;21036;-32
2022/10/03 21:08:39;;;;;;;37.92;29.42;;;21.90;57.00;;;;;;4455438;59;21068;-29
2022/10/03 21:13:53;;;;;;;38.13;29.98;;;21.90;57.10;;;;;;4447673;59;21052;-28
2022/10/03 21:18:59;;;;;;;36.42;28.10;;;21.90;57.10;;;;;;4460669;59;21100;-27
2022/10/03 21:24:25;;;;;;;37.05;27.85;;;21.90;57.10;;;;;;4457625;59;21105;-29
2022/10/03 21:29:32;;;;;;;34.42;27.95;;;21.90;57.10;;;;;;4445896;59;21522;-29
2022/10/03 21:36:10;;;;;;;34.83;27.42;;;21.90;57.20;;;;;;4447136;59;21095;-31
2022/10/03 21:42:43;;;;;;;35.22;27.17;;;21.80;57.10;;;;;;4455807;59;21069;-31
2022/10/03 21:47:49;;;;;;;34.45;27.15;;;21.80;57.10;;;;;;4445985;59;21096;-34
2022/10/03 21:56:26;;;;;;;33.67;26.57;;;21.90;57.20;;;;;;4440248;63;21152;-33
2022/10/03 22:01:44;;;;;;;31.48;26.35;;;21.90;57.30;;;;;;4446724;59;21053;-27
2022/10/03 22:07:36;;;;;;;33.85;26.62;;;21.90;57.30;;;;;;4489328;59;21022;-32
2022/10/03 22:12:47;;;;;;;32.38;25.67;;;21.90;57.30;;;;;;4457413;59;21112;-27
2022/10/03 22:18:01;;;;;;;30.92;25.25;;;21.90;57.30;;;;;;4455182;59;21036;-27
2022/10/03 22:23:31;;;;;;;33.10;26.52;;;21.90;57.30;;;;;;4442517;59;21043;-31
2022/10/03 22:30:24;;;;;;;32.42;25.83;;;21.90;57.40;;;;;;4445125;59;21131;-36
2022/10/03 22:35:48;;;;;;;32.15;25.95;;;21.80;57.40;;;;;;4439847;63;21177;-31
2022/10/03 22:40:51;;;;;;;31.25;23.85;;;21.80;57.40;;;;;;4450169;59;21028;-32
2022/10/03 22:45:54;;;;;;;30.10;24.00;;;21.90;57.50;;;;;;4482298;59;21071;-33
2022/10/03 22:50:56;;;;;;;30.40;24.30;;;21.80;57.40;;;;;;4439771;63;21103;-34
2022/10/03 22:55:58;;;;;;;30.23;24.52;;;21.80;57.40;;;;;;4478930;59;21060;-34
2022/10/03 23:01:01;;;;;;;31.30;24.37;;;21.80;57.40;;;;;;4468186;59;21554;-30
2022/10/03 23:06:30;;;;;;;33.92;25.58;;;21.80;57.50;;;;;;4448417;59;21057;-30
2022/10/03 23:11:35;;;;;;;30.60;24.63;;;21.80;57.50;;;;;;4446183;59;21161;-26
2022/10/03 23:19:15;;;;;;;29.42;23.08;;;21.80;57.40;;;;;;4452807;59;21052;-35
2022/10/03 23:24:38;;;;;;;30.00;23.92;;;21.80;57.50;;;;;;4450226;59;21028;-35
2022/10/03 23:29:39;;;;;;;30.83;23.95;;;21.80;57.50;;;;;;4444676;59;21567;-29
2022/10/03 23:34:45;;;;;;;27.83;22.70;;;21.80;57.50;;;;;;4464944;58;21617;-34
2022/10/03 23:40:46;;;;;;;29.20;22.60;;;21.80;57.60;;;;;;4458406;59;21534;-33
2022/10/03 23:45:50;;;;;;;29.42;21.87;;;21.80;57.50;;;;;;4441578;58;21298;-26
2022/10/03 23:51:11;;;;;;;29.25;22.30;;;21.80;57.60;;;;;;4459321;59;21124;-27
2022/10/03 23:56:37;;;;;;;30.45;23.25;;;21.80;57.50;;;;;;4445118;59;21052;-31
